CCA715 ZBAD-ZBTJ
Flight info
| Callsign | CCA715 |
|---|---|
| Flight time | 0h 19m |
| Altitude | 26600 |
| Route | ELKUR4K ELKUR DCT DUMAP DUMAP3H |
| Aircraft | B738/M-SDE2E3FGHIRWXY/LB1 |
Departure
| Time | 2026-04-16 05:23 |
|---|---|
| Airport | Beijing Daxing International Airport (ZBAD) |
Arrival
| Time | 2026-04-16 05:43 |
|---|---|
| Airport | Tianjin Binhai International Airport (ZBTJ) |
| Time | Latitude | Longitude | Altitude | Speed | Heading |
|---|---|---|---|---|---|
| 2026-04-16 04:59 | 39.50696 | 116.40381 | 107 ft | 0 kts | 103° |
| 2026-04-16 05:07 | 39.50696 | 116.40380 | 107 ft | 0 kts | 103° |
| 2026-04-16 05:08 | 39.50696 | 116.40378 | 108 ft | 1 kts | 103° |
| 2026-04-16 05:08 | 39.50698 | 116.40368 | 107 ft | 2 kts | 95° |
| 2026-04-16 05:08 | 39.50697 | 116.40351 | 107 ft | 2 kts | 56° |
| 2026-04-16 05:09 | 39.50690 | 116.40337 | 106 ft | 2 kts | 56° |
| 2026-04-16 05:09 | 39.50682 | 116.40323 | 107 ft | 2 kts | 54° |
| 2026-04-16 05:09 | 39.50674 | 116.40311 | 108 ft | 2 kts | 21° |
| 2026-04-16 05:09 | 39.50661 | 116.40307 | 106 ft | 2 kts | 8° |
| 2026-04-16 05:10 | 39.50648 | 116.40304 | 108 ft | 2 kts | 348° |
| 2026-04-16 05:10 | 39.50642 | 116.40307 | 108 ft | 0 kts | 323° |
| 2026-04-16 05:10 | 39.50643 | 116.40307 | 106 ft | 0 kts | 323° |
| 2026-04-16 05:13 | 39.50653 | 116.40279 | 104 ft | 6 kts | 278° |
| 2026-04-16 05:13 | 39.50644 | 116.40215 | 99 ft | 7 kts | 258° |
| 2026-04-16 05:13 | 39.50637 | 116.40152 | 107 ft | 7 kts | 262° |
| 2026-04-16 05:13 | 39.50635 | 116.40138 | 107 ft | 0 kts | 262° |
| 2026-04-16 05:19 | 39.50642 | 116.40132 | 107 ft | 3 kts | 323° |
| 2026-04-16 05:19 | 39.50678 | 116.40127 | 107 ft | 10 kts | 356° |
| 2026-04-16 05:19 | 39.50767 | 116.40116 | 107 ft | 14 kts | 353° |
| 2026-04-16 05:19 | 39.50879 | 116.40099 | 107 ft | 17 kts | 351° |
| 2026-04-16 05:20 | 39.50994 | 116.40079 | 107 ft | 16 kts | 353° |
| 2026-04-16 05:20 | 39.51105 | 116.40063 | 106 ft | 16 kts | 353° |
| 2026-04-16 05:20 | 39.51211 | 116.40045 | 107 ft | 15 kts | 353° |
| 2026-04-16 05:20 | 39.51313 | 116.40030 | 107 ft | 14 kts | 353° |
| 2026-04-16 05:21 | 39.51403 | 116.40015 | 107 ft | 8 kts | 353° |
| 2026-04-16 05:21 | 39.51446 | 116.39972 | 107 ft | 8 kts | 287° |
| 2026-04-16 05:21 | 39.51444 | 116.39899 | 108 ft | 8 kts | 263° |
| 2026-04-16 05:21 | 39.51433 | 116.39794 | 107 ft | 14 kts | 263° |
| 2026-04-16 05:22 | 39.51396 | 116.39684 | 107 ft | 14 kts | 198° |
| 2026-04-16 05:22 | 39.51300 | 116.39689 | 106 ft | 14 kts | 173° |
| 2026-04-16 05:22 | 39.51194 | 116.39706 | 107 ft | 19 kts | 173° |
| 2026-04-16 05:22 | 39.50858 | 116.39760 | 106 ft | 83 kts | 173° |
| 2026-04-16 05:23 | 39.50066 | 116.39885 | 109 ft | 144 kts | 173° |
| 2026-04-16 05:23 | 39.48958 | 116.40032 | 454 ft | 168 kts | 177° |
| 2026-04-16 05:23 | 39.47827 | 116.40133 | 1377 ft | 156 kts | 174° |
| 2026-04-16 05:23 | 39.46756 | 116.40345 | 2198 ft | 157 kts | 173° |
| 2026-04-16 05:24 | 39.45574 | 116.40604 | 2518 ft | 184 kts | 172° |
| 2026-04-16 05:24 | 39.44248 | 116.40886 | 2723 ft | 206 kts | 173° |
| 2026-04-16 05:24 | 39.42759 | 116.41196 | 2919 ft | 227 kts | 173° |
| 2026-04-16 05:24 | 39.41137 | 116.41528 | 3221 ft | 242 kts | 172° |
| 2026-04-16 05:25 | 39.39444 | 116.41867 | 3846 ft | 249 kts | 172° |
| 2026-04-16 05:25 | 39.37731 | 116.42200 | 4722 ft | 249 kts | 173° |
| 2026-04-16 05:25 | 39.36060 | 116.42872 | 5422 ft | 259 kts | 149° |
| 2026-04-16 05:25 | 39.34845 | 116.44628 | 6125 ft | 271 kts | 116° |
| 2026-04-16 05:26 | 39.34541 | 116.47058 | 6796 ft | 282 kts | 88° |
| 2026-04-16 05:26 | 39.34579 | 116.49599 | 7438 ft | 284 kts | 104° |
| 2026-04-16 05:26 | 39.33809 | 116.51912 | 8112 ft | 281 kts | 131° |
| 2026-04-16 05:26 | 39.32336 | 116.53520 | 8770 ft | 279 kts | 157° |
| 2026-04-16 05:27 | 39.30492 | 116.54260 | 9463 ft | 279 kts | 171° |
| 2026-04-16 05:27 | 39.28577 | 116.54751 | 10098 ft | 283 kts | 172° |
| 2026-04-16 05:27 | 39.26579 | 116.55227 | 10355 ft | 303 kts | 172° |
| 2026-04-16 05:27 | 39.24433 | 116.55723 | 10521 ft | 324 kts | 172° |
| 2026-04-16 05:28 | 39.22144 | 116.56240 | 10676 ft | 343 kts | 172° |
| 2026-04-16 05:28 | 39.19727 | 116.56777 | 10835 ft | 361 kts | 173° |
| 2026-04-16 05:28 | 39.17219 | 116.57329 | 11245 ft | 369 kts | 173° |
| 2026-04-16 05:28 | 39.14672 | 116.57888 | 11757 ft | 374 kts | 173° |
| 2026-04-16 05:29 | 39.12070 | 116.58458 | 12108 ft | 384 kts | 173° |
| 2026-04-16 05:29 | 39.09421 | 116.59037 | 12606 ft | 386 kts | 173° |
| 2026-04-16 05:29 | 39.06858 | 116.59924 | 12711 ft | 388 kts | 157° |
| 2026-04-16 05:29 | 39.04713 | 116.61995 | 12751 ft | 389 kts | 133° |
| 2026-04-16 05:30 | 39.03371 | 116.65059 | 12759 ft | 394 kts | 109° |
| 2026-04-16 05:30 | 39.03053 | 116.68578 | 12769 ft | 400 kts | 89° |
| 2026-04-16 05:30 | 39.03317 | 116.72145 | 12761 ft | 402 kts | 84° |
| 2026-04-16 05:30 | 39.03696 | 116.75668 | 12753 ft | 403 kts | 83° |
| 2026-04-16 05:31 | 39.04108 | 116.79232 | 12740 ft | 403 kts | 83° |
| 2026-04-16 05:31 | 39.04529 | 116.82797 | 12759 ft | 403 kts | 83° |
| 2026-04-16 05:31 | 39.04973 | 116.86359 | 12592 ft | 402 kts | 82° |
| 2026-04-16 05:31 | 39.05420 | 116.89855 | 12566 ft | 400 kts | 82° |
| 2026-04-16 05:32 | 39.06012 | 116.93322 | 12255 ft | 394 kts | 70° |
| 2026-04-16 05:32 | 39.07408 | 116.96313 | 11640 ft | 388 kts | 49° |
| 2026-04-16 05:32 | 39.09258 | 116.98787 | 11046 ft | 378 kts | 44° |
| 2026-04-16 05:32 | 39.11145 | 117.01087 | 10438 ft | 370 kts | 43° |
| 2026-04-16 05:33 | 39.13019 | 117.03317 | 9838 ft | 363 kts | 43° |
| 2026-04-16 05:33 | 39.14872 | 117.05502 | 9102 ft | 360 kts | 43° |
| 2026-04-16 05:33 | 39.16694 | 117.07617 | 8833 ft | 344 kts | 43° |
| 2026-04-16 05:33 | 39.18444 | 117.09629 | 8572 ft | 329 kts | 43° |
| 2026-04-16 05:34 | 39.20107 | 117.11526 | 8559 ft | 309 kts | 43° |
| 2026-04-16 05:34 | 39.21649 | 117.13333 | 8515 ft | 290 kts | 51° |
| 2026-04-16 05:34 | 39.22753 | 117.15431 | 8304 ft | 278 kts | 62° |
| 2026-04-16 05:34 | 39.23725 | 117.17522 | 8094 ft | 266 kts | 62° |
| 2026-04-16 05:35 | 39.24348 | 117.18856 | 7919 ft | 259 kts | 62° |
| 2026-04-16 05:35 | 39.25598 | 117.21512 | 7227 ft | 260 kts | 63° |
| 2026-04-16 05:35 | 39.26541 | 117.23492 | 6754 ft | 257 kts | 63° |
| 2026-04-16 05:35 | 39.27163 | 117.24786 | 6457 ft | 255 kts | 62° |
| 2026-04-16 05:36 | 39.28396 | 117.27325 | 5914 ft | 247 kts | 62° |
| 2026-04-16 05:36 | 39.29297 | 117.29172 | 5530 ft | 239 kts | 62° |
| 2026-04-16 05:36 | 39.30245 | 117.30880 | 5185 ft | 232 kts | 45° |
| 2026-04-16 05:36 | 39.31697 | 117.31660 | 4865 ft | 226 kts | 0° |
| 2026-04-16 05:37 | 39.32707 | 117.31403 | 4647 ft | 216 kts | 330° |
| 2026-04-16 05:37 | 39.33668 | 117.30092 | 4369 ft | 195 kts | 283° |
| 2026-04-16 05:37 | 39.33619 | 117.28462 | 4148 ft | 180 kts | 243° |
| 2026-04-16 05:37 | 39.33020 | 117.27075 | 3886 ft | 179 kts | 219° |
| 2026-04-16 05:38 | 39.31901 | 117.26561 | 3643 ft | 173 kts | 182° |
| 2026-04-16 05:38 | 39.30688 | 117.26545 | 3360 ft | 176 kts | 178° |
| 2026-04-16 05:38 | 39.29517 | 117.26968 | 3287 ft | 179 kts | 162° |
| 2026-04-16 05:38 | 39.28337 | 117.27574 | 3068 ft | 184 kts | 159° |
| 2026-04-16 05:39 | 39.27180 | 117.28249 | 2814 ft | 180 kts | 158° |
| 2026-04-16 05:39 | 39.26066 | 117.28926 | 2577 ft | 175 kts | 158° |
| 2026-04-16 05:39 | 39.24977 | 117.29595 | 2350 ft | 174 kts | 161° |
| 2026-04-16 05:39 | 39.23896 | 117.30200 | 2120 ft | 165 kts | 155° |
| 2026-04-16 05:40 | 39.22917 | 117.30897 | 1963 ft | 158 kts | 158° |
| 2026-04-16 05:40 | 39.21903 | 117.31500 | 1717 ft | 160 kts | 160° |
| 2026-04-16 05:40 | 39.20902 | 117.32105 | 1476 ft | 157 kts | 159° |
| 2026-04-16 05:40 | 39.19934 | 117.32699 | 1278 ft | 154 kts | 158° |
| 2026-04-16 05:41 | 39.18946 | 117.33305 | 1084 ft | 159 kts | 158° |
| 2026-04-16 05:41 | 39.17949 | 117.33920 | 831 ft | 158 kts | 159° |
| 2026-04-16 05:41 | 39.16967 | 117.34526 | 632 ft | 154 kts | 158° |
| 2026-04-16 05:41 | 39.15985 | 117.35127 | 472 ft | 158 kts | 159° |
| 2026-04-16 05:42 | 39.15007 | 117.35731 | 255 ft | 151 kts | 157° |
| 2026-04-16 05:42 | 39.14057 | 117.36317 | 42 ft | 150 kts | 157° |
| 2026-04-16 05:42 | 39.13183 | 117.36851 | 21 ft | 121 kts | 155° |
| 2026-04-16 05:42 | 39.12563 | 117.37231 | 18 ft | 77 kts | 154° |
| 2026-04-16 05:43 | 39.12160 | 117.37477 | 19 ft | 59 kts | 154° |
| 2026-04-16 05:43 | 39.11810 | 117.37692 | 16 ft | 48 kts | 154° |
| 2026-04-16 05:43 | 39.11707 | 117.37745 | 15 ft | 12 kts | 172° |
| 2026-04-16 05:43 | 39.11644 | 117.37688 | 17 ft | 12 kts | 242° |
| 2026-04-16 05:44 | 39.11624 | 117.37591 | 18 ft | 11 kts | 288° |
| 2026-04-16 05:44 | 39.11670 | 117.37543 | 18 ft | 5 kts | 332° |
| 2026-04-16 05:44 | 39.11699 | 117.37524 | 18 ft | 5 kts | 333° |
| 2026-04-16 05:44 | 39.11728 | 117.37506 | 18 ft | 5 kts | 335° |
| 2026-04-16 05:45 | 39.11761 | 117.37487 | 18 ft | 8 kts | 335° |
| 2026-04-16 05:45 | 39.11850 | 117.37433 | 18 ft | 20 kts | 334° |
| 2026-04-16 05:45 | 39.12000 | 117.37341 | 18 ft | 25 kts | 334° |
| 2026-04-16 05:45 | 39.12155 | 117.37246 | 20 ft | 24 kts | 334° |
| 2026-04-16 05:46 | 39.12300 | 117.37158 | 20 ft | 23 kts | 334° |
| 2026-04-16 05:46 | 39.12440 | 117.37072 | 18 ft | 22 kts | 335° |
| 2026-04-16 05:46 | 39.12576 | 117.36988 | 18 ft | 21 kts | 334° |
| 2026-04-16 05:46 | 39.12709 | 117.36907 | 18 ft | 21 kts | 334° |
| 2026-04-16 05:47 | 39.12819 | 117.36840 | 18 ft | 13 kts | 335° |
| 2026-04-16 05:47 | 39.12847 | 117.36746 | 18 ft | 13 kts | 246° |
| 2026-04-16 05:47 | 39.12809 | 117.36645 | 18 ft | 12 kts | 244° |
| 2026-04-16 05:47 | 39.12772 | 117.36547 | 18 ft | 12 kts | 244° |
| 2026-04-16 05:48 | 39.12737 | 117.36452 | 18 ft | 12 kts | 244° |
| 2026-04-16 05:48 | 39.12702 | 117.36358 | 18 ft | 11 kts | 244° |
| 2026-04-16 05:48 | 39.12673 | 117.36287 | 18 ft | 7 kts | 232° |
| 2026-04-16 05:48 | 39.12639 | 117.36250 | 18 ft | 5 kts | 220° |
| 2026-04-16 05:49 | 39.12622 | 117.36212 | 21 ft | 5 kts | 254° |
| 2026-04-16 05:49 | 39.12618 | 117.36169 | 18 ft | 5 kts | 265° |
| 2026-04-16 05:49 | 39.12616 | 117.36141 | 18 ft | 3 kts | 265° |
| 2026-04-16 05:49 | 39.12615 | 117.36129 | 18 ft | 0 kts | 265° |